createdAt,value
2023-03-30T00:01:23.959Z,71.04
2023-03-30T00:06:25.660Z,69.61
2023-03-30T00:11:27.023Z,69.36
2023-03-30T00:16:27.899Z,69.59
2023-03-30T00:21:29.110Z,68.57
2023-03-30T00:26:30.182Z,69.17
2023-03-30T00:31:30.928Z,69.30
2023-03-30T00:36:36.302Z,70.64
2023-03-30T00:41:37.218Z,71.40
2023-03-30T00:46:40.277Z,71.85
2023-03-30T00:51:42.269Z,75.60
2023-03-30T00:56:43.497Z,77.05
2023-03-30T01:01:49.540Z,78.54
2023-03-30T01:06:51.438Z,78.92
2023-03-30T01:11:52.468Z,76.12
2023-03-30T01:17:15.830Z,75.44
2023-03-30T01:24:04.116Z,73.21
2023-03-30T01:29:29.199Z,71.37
2023-03-30T01:38:38.086Z,72.18
2023-03-30T01:43:54.288Z,73.21
2023-03-30T01:49:27.390Z,74.21
2023-03-30T01:54:36.128Z,73.11
2023-03-30T01:59:45.969Z,74.03
2023-03-30T02:04:52.908Z,72.59
2023-03-30T02:09:58.123Z,69.60
2023-03-30T02:15:03.998Z,67.16
2023-03-30T02:20:08.677Z,67.44
2023-03-30T02:25:11.831Z,67.05
2023-03-30T02:30:13.999Z,67.99
2023-03-30T02:35:47.162Z,68.44
2023-03-30T02:41:05.024Z,69.54
2023-03-30T02:46:19.177Z,70.49
2023-03-30T02:52:16.841Z,71.65
2023-03-30T02:57:46.182Z,73.20
2023-03-30T03:03:14.172Z,72.10
2023-03-30T03:08:18.605Z,72.77
2023-03-30T03:13:21.268Z,72.92
2023-03-30T03:18:23.587Z,73.96
2023-03-30T03:23:24.994Z,74.95
2023-03-30T03:28:28.969Z,78.97
2023-03-30T03:33:35.525Z,80.25
2023-03-30T03:38:43.953Z,80.82
2023-03-30T03:43:45.019Z,82.94
2023-03-30T03:48:46.371Z,87.05
2023-03-30T03:53:48.857Z,91.89
2023-03-30T03:58:50.418Z,91.90
2023-03-30T04:03:51.279Z,93.08
2023-03-30T04:08:52.568Z,94.27
2023-03-30T04:16:30.798Z,94.63
2023-03-30T04:22:32.931Z,94.87
2023-03-30T04:27:55.181Z,95.64
2023-03-30T04:33:52.604Z,96.57
2023-03-30T04:39:12.910Z,95.36
2023-03-30T04:44:25.359Z,96.40
2023-03-30T04:49:50.594Z,96.21
2023-03-30T04:55:48.932Z,97.37
2023-03-30T05:01:08.086Z,100.00
2023-03-30T05:06:37.242Z,100.00
2023-03-30T05:11:56.454Z,100.00
2023-03-30T05:18:28.088Z,100.00
2023-03-30T05:23:43.273Z,100.00
2023-03-30T05:29:18.361Z,100.00
2023-03-30T05:34:37.622Z,100.00
2023-03-30T05:39:54.496Z,100.00
2023-03-30T05:45:07.896Z,100.00
2023-03-30T05:50:27.200Z,100.00
2023-03-30T05:55:32.543Z,100.00
2023-03-30T06:00:53.378Z,100.00
2023-03-30T06:06:07.142Z,100.00
2023-03-30T06:11:09.236Z,100.00
2023-03-30T06:16:18.850Z,100.00
2023-03-30T06:21:21.100Z,100.00
2023-03-30T06:27:08.487Z,100.00
2023-03-30T06:32:10.434Z,100.00
2023-03-30T06:39:06.509Z,100.00
2023-03-30T06:44:14.016Z,100.00
2023-03-30T06:49:15.052Z,100.00
2023-03-30T06:54:33.870Z,100.00
2023-03-30T06:59:38.690Z,100.00
2023-03-30T07:05:14.887Z,100.00
2023-03-30T07:11:04.053Z,100.00
2023-03-30T07:16:07.278Z,100.00
2023-03-30T07:21:08.634Z,100.00
2023-03-30T07:26:13.433Z,100.00
2023-03-30T07:31:28.429Z,100.00
2023-03-30T07:36:29.805Z,100.00
2023-03-30T07:41:30.848Z,100.00
2023-03-30T07:46:32.861Z,100.00
2023-03-30T07:51:34.859Z,100.00
2023-03-30T07:56:42.138Z,100.00
2023-03-30T08:01:44.142Z,100.00
2023-03-30T08:07:06.954Z,100.00
2023-03-30T08:12:08.626Z,100.00
2023-03-30T08:17:09.421Z,100.00
2023-03-30T08:22:10.313Z,100.00
2023-03-30T08:27:11.283Z,100.00
2023-03-30T08:32:12.128Z,100.00
2023-03-30T08:37:13.100Z,100.00
2023-03-30T08:44:56.497Z,100.00
2023-03-30T08:50:18.401Z,100.00
2023-03-30T08:55:45.404Z,100.00
2023-03-30T09:00:58.425Z,100.00
2023-03-30T09:06:18.674Z,99.39
2023-03-30T09:11:31.162Z,100.00
2023-03-30T09:16:45.734Z,98.60
2023-03-30T09:21:49.198Z,98.62
2023-03-30T09:26:59.246Z,97.59
2023-03-30T09:32:12.782Z,96.27
2023-03-30T09:37:18.005Z,94.72
2023-03-30T09:43:04.078Z,92.20
2023-03-30T09:48:07.841Z,92.37
2023-03-30T09:53:28.442Z,87.39
2023-03-30T09:58:33.596Z,84.78
2023-03-30T10:03:35.093Z,78.90
2023-03-30T10:08:54.662Z,72.49
2023-03-30T10:13:57.035Z,66.73
2023-03-30T10:19:04.763Z,73.77
2023-03-30T10:24:22.013Z,76.00
2023-03-30T10:29:26.562Z,76.25
2023-03-30T10:35:17.213Z,75.46
2023-03-30T10:40:33.339Z,74.84
2023-03-30T10:45:40.046Z,69.54
2023-03-30T10:51:09.875Z,64.92
2023-03-30T10:58:03.317Z,66.20
2023-03-30T11:03:26.678Z,66.77
2023-03-30T11:08:37.012Z,62.72
2023-03-30T11:13:42.276Z,59.82
2023-03-30T11:18:56.275Z,56.98
2023-03-30T11:24:10.451Z,56.26
2023-03-30T11:29:30.592Z,56.25
2023-03-30T11:34:45.699Z,56.15
2023-03-30T11:39:58.272Z,58.52
2023-03-30T11:45:00.951Z,59.84
2023-03-30T11:51:45.128Z,58.32
2023-03-30T11:56:49.812Z,56.75
2023-03-30T12:03:35.268Z,55.35
2023-03-30T12:09:34.275Z,62.50
2023-03-30T12:17:33.484Z,64.11
2023-03-30T12:22:44.565Z,66.77
2023-03-30T12:28:15.332Z,61.68
2023-03-30T12:33:27.417Z,60.96
2023-03-30T12:38:42.723Z,54.60
2023-03-30T12:44:04.037Z,52.63
2023-03-30T12:53:49.793Z,63.04
2023-03-30T13:01:59.893Z,96.34
2023-03-30T13:07:04.514Z,95.09
2023-03-30T13:12:39.106Z,92.48
2023-03-30T13:24:07.674Z,86.43
2023-03-30T13:29:10.746Z,93.80
2023-03-30T13:34:23.704Z,89.51
2023-03-30T13:41:33.115Z,84.13
2023-03-30T13:47:07.548Z,89.03
2023-03-30T13:52:13.852Z,91.14
2023-03-30T13:57:27.097Z,90.27
2023-03-30T14:02:30.062Z,91.74
2023-03-30T14:07:40.357Z,99.80
2023-03-30T14:12:42.750Z,100.00
2023-03-30T14:17:49.225Z,100.00
2023-03-30T14:22:51.715Z,100.00
2023-03-30T14:27:52.763Z,100.00
2023-03-30T14:33:11.747Z,100.00
2023-03-30T14:38:33.830Z,100.00
2023-03-30T14:43:39.526Z,100.00
2023-03-30T14:48:43.320Z,100.00
2023-03-30T14:53:44.540Z,100.00
2023-03-30T14:58:47.058Z,100.00
2023-03-30T15:03:48.769Z,100.00
2023-03-30T15:08:49.882Z,100.00
2023-03-30T15:13:53.255Z,100.00
2023-03-30T15:19:43.066Z,100.00
2023-03-30T15:24:44.375Z,100.00
2023-03-30T15:29:46.378Z,100.00
2023-03-30T15:35:39.022Z,100.00
2023-03-30T15:40:46.636Z,100.00
2023-03-30T15:46:01.326Z,100.00
2023-03-30T15:51:09.520Z,100.00
2023-03-30T15:56:38.823Z,100.00
2023-03-30T16:02:01.153Z,100.00
2023-03-30T16:07:13.426Z,100.00
2023-03-30T16:12:21.172Z,100.00
2023-03-30T16:17:22.391Z,100.00
2023-03-30T16:22:23.196Z,100.00
2023-03-30T16:27:24.031Z,100.00
2023-03-30T16:32:29.875Z,100.00
2023-03-30T16:37:36.165Z,100.00
2023-03-30T16:42:36.962Z,100.00
2023-03-30T16:47:37.873Z,99.32
2023-03-30T16:52:38.704Z,99.07
2023-03-30T16:57:39.835Z,98.48
2023-03-30T17:02:40.693Z,97.87
2023-03-30T17:07:42.051Z,98.60
2023-03-30T17:12:42.873Z,97.59
2023-03-30T17:17:43.779Z,96.91
2023-03-30T17:22:44.593Z,96.86
2023-03-30T17:27:50.115Z,95.17
2023-03-30T17:32:51.737Z,95.17
2023-03-30T17:37:54.832Z,94.11
2023-03-30T17:42:56.031Z,95.77
2023-03-30T17:47:57.783Z,95.49
2023-03-30T17:52:59.873Z,100.00
2023-03-30T17:58:01.424Z,100.00
2023-03-30T18:03:02.250Z,100.00
2023-03-30T18:08:04.176Z,100.00
2023-03-30T18:13:05.849Z,100.00
2023-03-30T18:18:06.656Z,100.00
2023-03-30T18:23:08.394Z,100.00
2023-03-30T18:28:16.486Z,100.00
2023-03-30T18:33:17.467Z,100.00
2023-03-30T18:38:20.850Z,100.00
2023-03-30T18:43:21.918Z,100.00
2023-03-30T18:48:22.735Z,100.00
2023-03-30T18:53:27.040Z,100.00
2023-03-30T18:58:33.027Z,100.00
2023-03-30T19:03:34.047Z,100.00
2023-03-30T19:08:34.924Z,100.00
2023-03-30T19:13:35.930Z,100.00
2023-03-30T19:18:36.718Z,100.00
2023-03-30T19:23:37.498Z,100.00
2023-03-30T19:28:39.811Z,100.00
2023-03-30T19:33:41.086Z,100.00
2023-03-30T19:38:43.169Z,100.00
2023-03-30T19:43:44.747Z,100.00
2023-03-30T19:48:45.567Z,100.00
2023-03-30T19:53:46.528Z,100.00
2023-03-30T19:58:47.622Z,100.00
2023-03-30T20:03:48.479Z,100.00
2023-03-30T20:08:49.429Z,100.00
2023-03-30T20:13:50.901Z,100.00
2023-03-30T20:18:52.911Z,100.00
2023-03-30T20:23:55.112Z,100.00
2023-03-30T20:28:56.127Z,100.00
2023-03-30T20:33:57.827Z,100.00
2023-03-30T20:38:58.703Z,100.00
2023-03-30T20:44:02.511Z,100.00
2023-03-30T20:49:05.088Z,100.00
2023-03-30T20:54:06.174Z,100.00
2023-03-30T20:59:07.384Z,100.00
2023-03-30T21:04:08.281Z,100.00
2023-03-30T21:09:09.633Z,100.00
2023-03-30T21:14:12.503Z,100.00
2023-03-30T21:19:13.310Z,100.00
2023-03-30T21:24:16.029Z,100.00
2023-03-30T21:29:17.119Z,100.00
2023-03-30T21:34:17.969Z,100.00
2023-03-30T21:39:18.738Z,100.00
2023-03-30T21:44:19.566Z,100.00
2023-03-30T21:49:20.338Z,100.00
2023-03-30T21:54:21.118Z,100.00
2023-03-30T21:59:21.968Z,100.00
2023-03-30T22:04:22.970Z,100.00
2023-03-30T22:09:23.778Z,100.00
2023-03-30T22:14:24.763Z,100.00
2023-03-30T22:19:25.658Z,100.00
2023-03-30T22:24:26.459Z,100.00
2023-03-30T22:29:27.318Z,100.00
2023-03-30T22:34:28.230Z,100.00
2023-03-30T22:39:29.173Z,100.00
2023-03-30T22:44:30.203Z,100.00
2023-03-30T22:49:30.977Z,100.00
2023-03-30T22:54:32.046Z,100.00
2023-03-30T22:59:32.970Z,100.00
2023-03-30T23:04:33.838Z,100.00
2023-03-30T23:09:34.664Z,100.00
2023-03-30T23:14:37.117Z,100.00
2023-03-30T23:19:37.963Z,100.00
2023-03-30T23:24:38.732Z,100.00
2023-03-30T23:29:40.141Z,100.00
2023-03-30T23:34:42.190Z,100.00
2023-03-30T23:39:42.960Z,100.00
2023-03-30T23:44:44.336Z,100.00
2023-03-30T23:49:45.350Z,100.00
2023-03-30T23:54:51.336Z,100.00
2023-03-30T23:59:52.293Z,100.00
